Williamstown, OH (45897)

6:44 PM EDT on July 28, 2014 (GMT -0400)
KOHARLIN2 Elev 850 ft | 40.87 °N, 83.66 °W | Change Station

Current weather conditions updated 6 seconds ago

Overcast
Overcast
69.5 °F
Feels Like 69.5 °F
N
7.0
Wind Variable Wind from WNW
Gusts 13.0 mph

Tomorrow is forecast to be nearly the same temperature as today. Thunderstorms early tomorrow night.

Today
High -- | Low -- °F
--% Chance of Precip.
Yesterday
High -- | Low -- °F
Precip. -- in
6:27 AM 8:54 PM
Waxing Crescent, 4% visible
Pressure 29.91 in
Visibility 10.0 miles
Clouds Few 4800 ft
Overcast 7500 ft
Dew Point 55 °F
Humidity 60%
Rainfall 0.00 in
Snow Depth Not available.
UV 1 out of 12
Pollen 6.50 out of 12
Air Quality Not available.
Flu Activity Not available.
METAR KFDY 282153Z AUTO 34008KT 10SM FEW048 OVC075 23/12 A2993 RMK AO2 SLP129 T02280117

More Conditions Fewer Conditions

Pressure 29.91 in
Visibility 10.0 miles
Clouds Few 4800 ft
Overcast 7500 ft
Dew Point 55 °F
Humidity 60%
Rainfall 0.00 in
Snow Depth Not available.
UV 1 out of 12
Pollen 6.50 out of 12
Air Quality Not available.
Flu Activity Not available.
METAR KFDY 282153Z AUTO 34008KT 10SM FEW048 OVC075 23/12 A2993 RMK AO2 SLP129 T02280117

More Conditions Fewer Conditions

10-Day Weather Forecast

Almanac

Astronomy

Jul. 28, 2014 Rise Set
Actual Time 6:27 AM EDT 8:54 PM EDT
Civil Twilight 5:55 AM EDT 9:25 PM EDT
Nautical Twilight 5:17 AM EDT 10:04 PM EDT
Astronomical Twilight 4:33 AM EDT 10:47 PM EDT
Moon 8:08 AM EDT 9:34 PM EDT
Length of Visible Light 15h 29m
Length of Day
14h 27m
Tomorrow will be 1m 56s shorter.
Waxing Crescent, 4% of the Moon is Illuminated
Today
Waxing Crescent
Aug 3
First Quarter
Aug 10
Full
Aug 17
Last Quarter
Aug 25
New

Today's Extremes

State Highs State Lows

Community

WunderPhotos

Upload Photos

1,738,513 photos uploaded!

Nearby

Snow Depth

Station Depth Elevation
No new snow has been reported.

Earthquake Activity

City Distance Mag. Time & Date
No recent earthquake activity has been reported nearby.
Minimum magnitude displayed is 2.5.

Coastal Water Temperatures

Place Temperature
No Stations Reporting

Nearby Weather Stations

Station Location Temp. Heat Index Dew Point Humidity Wind Precip. Elev Updated Type
ARLINGTON, OH 69.5 °F - 55 °F 60% WNW  at  7.0 mph 0.00 in / hr 850 ft 6:43 PM EDT Rapid Fire
Ada, Ada, OH 67.9 °F - 56 °F 67% NW  at  3.0 mph 0.00 in / hr 912 ft 6:43 PM EDT Rapid Fire
Findlay, Findlay, OH 70.9 °F 76 °F 55 °F 58% WNW  at  2.0 mph 0.00 in / hr 814 ft 6:32 PM EDT Normal
Arcadia Ohio Williesweather, ARCADIA, OH 69.8 °F - 54 °F 58% North  at  10.0 mph 0.00 in / hr 820 ft 6:43 PM EDT Rapid Fire

Show More Stations Show Fewer Stations